sensor_id;sensor_type;location;lat;lon;timestamp;temperature;humidity
24458;DHT22;12629;50.860;5.714;2022-10-16T00:01:53;14.10;99.90
24458;DHT22;12629;50.860;5.714;2022-10-16T00:04:20;14.10;99.90
24458;DHT22;12629;50.860;5.714;2022-10-16T00:06:47;14.10;99.90
24458;DHT22;12629;50.860;5.714;2022-10-16T00:09:16;14.00;99.90
24458;DHT22;12629;50.860;5.714;2022-10-16T00:11:43;14.00;99.90
24458;DHT22;12629;50.860;5.714;2022-10-16T00:14:12;14.10;99.90
24458;DHT22;12629;50.860;5.714;2022-10-16T00:16:40;14.10;99.90
24458;DHT22;12629;50.860;5.714;2022-10-16T00:19:09;14.10;99.90
24458;DHT22;12629;50.860;5.714;2022-10-16T00:21:37;14.00;99.90
24458;DHT22;12629;50.860;5.714;2022-10-16T00:24:06;14.10;99.90
24458;DHT22;12629;50.860;5.714;2022-10-16T00:26:37;14.00;99.90
24458;DHT22;12629;50.860;5.714;2022-10-16T00:29:05;13.90;99.90
24458;DHT22;12629;50.860;5.714;2022-10-16T00:31:33;13.90;99.90
24458;DHT22;12629;50.860;5.714;2022-10-16T00:34:00;13.80;99.90
24458;DHT22;12629;50.860;5.714;2022-10-16T00:36:28;13.80;99.90
24458;DHT22;12629;50.860;5.714;2022-10-16T00:38:57;13.90;99.90
24458;DHT22;12629;50.860;5.714;2022-10-16T00:41:26;13.90;99.90
24458;DHT22;12629;50.860;5.714;2022-10-16T00:43:57;13.80;99.90
24458;DHT22;12629;50.860;5.714;2022-10-16T00:46:26;13.80;99.90
24458;DHT22;12629;50.860;5.714;2022-10-16T00:48:57;13.80;99.90
24458;DHT22;12629;50.860;5.714;2022-10-16T00:51:34;13.70;99.90
24458;DHT22;12629;50.860;5.714;2022-10-16T00:54:03;13.70;99.90
24458;DHT22;12629;50.860;5.714;2022-10-16T00:56:32;13.70;99.90
24458;DHT22;12629;50.860;5.714;2022-10-16T00:59:02;13.60;99.90
24458;DHT22;12629;50.860;5.714;2022-10-16T01:01:30;13.60;99.90
24458;DHT22;12629;50.860;5.714;2022-10-16T01:03:57;13.60;99.90
24458;DHT22;12629;50.860;5.714;2022-10-16T01:06:31;13.60;99.90
24458;DHT22;12629;50.860;5.714;2022-10-16T01:09:14;13.60;99.90
24458;DHT22;12629;50.860;5.714;2022-10-16T01:11:50;13.60;99.90
24458;DHT22;12629;50.860;5.714;2022-10-16T01:14:32;13.60;99.90
24458;DHT22;12629;50.860;5.714;2022-10-16T01:17:04;13.60;99.90
24458;DHT22;12629;50.860;5.714;2022-10-16T01:20:01;13.50;99.90
24458;DHT22;12629;50.860;5.714;2022-10-16T01:22:39;13.60;99.90
24458;DHT22;12629;50.860;5.714;2022-10-16T01:25:11;13.60;99.90
24458;DHT22;12629;50.860;5.714;2022-10-16T01:27:45;13.50;99.90
24458;DHT22;12629;50.860;5.714;2022-10-16T01:30:16;13.50;99.90
24458;DHT22;12629;50.860;5.714;2022-10-16T01:32:49;13.50;99.90
24458;DHT22;12629;50.860;5.714;2022-10-16T01:35:20;13.50;99.90
24458;DHT22;12629;50.860;5.714;2022-10-16T01:37:51;13.50;99.90
24458;DHT22;12629;50.860;5.714;2022-10-16T01:40:21;13.50;99.90
24458;DHT22;12629;50.860;5.714;2022-10-16T01:42:55;13.50;99.90
24458;DHT22;12629;50.860;5.714;2022-10-16T01:45:23;13.50;99.90
24458;DHT22;12629;50.860;5.714;2022-10-16T01:47:52;13.60;99.90
24458;DHT22;12629;50.860;5.714;2022-10-16T01:50:20;13.60;99.90
24458;DHT22;12629;50.860;5.714;2022-10-16T01:52:51;13.60;99.90
24458;DHT22;12629;50.860;5.714;2022-10-16T01:55:24;13.70;99.90
24458;DHT22;12629;50.860;5.714;2022-10-16T01:57:55;13.70;99.90
24458;DHT22;12629;50.860;5.714;2022-10-16T02:00:23;13.70;99.90
24458;DHT22;12629;50.860;5.714;2022-10-16T02:02:53;13.70;99.90
24458;DHT22;12629;50.860;5.714;2022-10-16T02:05:25;13.70;99.90
24458;DHT22;12629;50.860;5.714;2022-10-16T02:07:53;13.60;99.90
24458;DHT22;12629;50.860;5.714;2022-10-16T02:10:21;13.60;99.90
24458;DHT22;12629;50.860;5.714;2022-10-16T02:12:53;13.70;99.90
24458;DHT22;12629;50.860;5.714;2022-10-16T02:15:23;13.70;99.90
24458;DHT22;12629;50.860;5.714;2022-10-16T02:17:50;13.70;99.90
24458;DHT22;12629;50.860;5.714;2022-10-16T02:20:19;13.70;99.90
24458;DHT22;12629;50.860;5.714;2022-10-16T02:22:49;13.70;99.90
24458;DHT22;12629;50.860;5.714;2022-10-16T02:25:22;13.60;99.90
24458;DHT22;12629;50.860;5.714;2022-10-16T02:27:55;13.50;99.90
24458;DHT22;12629;50.860;5.714;2022-10-16T02:30:29;13.40;99.90
24458;DHT22;12629;50.860;5.714;2022-10-16T02:32:58;13.40;99.90
24458;DHT22;12629;50.860;5.714;2022-10-16T02:35:28;13.40;99.90
24458;DHT22;12629;50.860;5.714;2022-10-16T02:37:57;13.40;99.90
24458;DHT22;12629;50.860;5.714;2022-10-16T02:40:24;13.40;99.90
24458;DHT22;12629;50.860;5.714;2022-10-16T02:42:54;13.40;99.90
24458;DHT22;12629;50.860;5.714;2022-10-16T02:45:22;13.40;99.90
24458;DHT22;12629;50.860;5.714;2022-10-16T02:47:50;13.50;99.90
24458;DHT22;12629;50.860;5.714;2022-10-16T02:50:18;13.50;99.90
24458;DHT22;12629;50.860;5.714;2022-10-16T02:52:45;13.40;99.90
24458;DHT22;12629;50.860;5.714;2022-10-16T02:55:12;13.40;99.90
24458;DHT22;12629;50.860;5.714;2022-10-16T02:57:39;13.40;99.90
24458;DHT22;12629;50.860;5.714;2022-10-16T03:00:08;13.30;99.90
24458;DHT22;12629;50.860;5.714;2022-10-16T03:02:36;13.30;99.90
24458;DHT22;12629;50.860;5.714;2022-10-16T03:05:05;13.30;99.90
24458;DHT22;12629;50.860;5.714;2022-10-16T03:07:33;13.30;99.90
24458;DHT22;12629;50.860;5.714;2022-10-16T03:10:00;13.30;99.90
24458;DHT22;12629;50.860;5.714;2022-10-16T03:12:27;13.50;99.90
24458;DHT22;12629;50.860;5.714;2022-10-16T03:14:55;13.40;99.90
24458;DHT22;12629;50.860;5.714;2022-10-16T03:17:22;13.40;99.90
24458;DHT22;12629;50.860;5.714;2022-10-16T03:19:49;13.40;99.90
24458;DHT22;12629;50.860;5.714;2022-10-16T03:22:18;13.30;99.90
24458;DHT22;12629;50.860;5.714;2022-10-16T03:24:46;13.30;99.90
24458;DHT22;12629;50.860;5.714;2022-10-16T03:27:13;13.30;99.90
24458;DHT22;12629;50.860;5.714;2022-10-16T03:29:40;13.20;99.90
24458;DHT22;12629;50.860;5.714;2022-10-16T03:32:07;13.10;99.90
24458;DHT22;12629;50.860;5.714;2022-10-16T03:34:35;13.00;99.90
24458;DHT22;12629;50.860;5.714;2022-10-16T03:37:02;13.00;99.90
24458;DHT22;12629;50.860;5.714;2022-10-16T03:39:31;13.10;99.90
24458;DHT22;12629;50.860;5.714;2022-10-16T03:41:58;13.10;99.90
24458;DHT22;12629;50.860;5.714;2022-10-16T03:44:25;13.10;99.90
24458;DHT22;12629;50.860;5.714;2022-10-16T03:46:52;13.20;99.90
24458;DHT22;12629;50.860;5.714;2022-10-16T03:49:19;13.20;99.90
24458;DHT22;12629;50.860;5.714;2022-10-16T03:51:46;13.20;99.90
24458;DHT22;12629;50.860;5.714;2022-10-16T03:54:14;13.20;99.90
24458;DHT22;12629;50.860;5.714;2022-10-16T03:56:42;13.20;99.90
24458;DHT22;12629;50.860;5.714;2022-10-16T03:59:10;13.20;99.90
24458;DHT22;12629;50.860;5.714;2022-10-16T04:01:37;13.10;99.90
24458;DHT22;12629;50.860;5.714;2022-10-16T04:04:04;13.10;99.90
24458;DHT22;12629;50.860;5.714;2022-10-16T04:06:31;13.10;99.90
24458;DHT22;12629;50.860;5.714;2022-10-16T04:08:58;13.00;99.90
24458;DHT22;12629;50.860;5.714;2022-10-16T04:11:26;13.00;99.90
24458;DHT22;12629;50.860;5.714;2022-10-16T04:13:54;13.10;99.90
24458;DHT22;12629;50.860;5.714;2022-10-16T04:16:21;13.00;99.90
24458;DHT22;12629;50.860;5.714;2022-10-16T04:18:49;13.10;99.90
24458;DHT22;12629;50.860;5.714;2022-10-16T04:21:16;13.20;99.90
24458;DHT22;12629;50.860;5.714;2022-10-16T04:23:43;13.30;99.90
24458;DHT22;12629;50.860;5.714;2022-10-16T04:26:10;13.30;99.90
24458;DHT22;12629;50.860;5.714;2022-10-16T04:28:37;13.20;99.90
24458;DHT22;12629;50.860;5.714;2022-10-16T04:31:06;13.20;99.90
24458;DHT22;12629;50.860;5.714;2022-10-16T04:33:34;13.20;99.90
24458;DHT22;12629;50.860;5.714;2022-10-16T04:36:02;13.10;99.90
24458;DHT22;12629;50.860;5.714;2022-10-16T04:38:30;13.10;99.90
24458;DHT22;12629;50.860;5.714;2022-10-16T04:40:57;13.20;99.90
24458;DHT22;12629;50.860;5.714;2022-10-16T04:43:25;13.20;99.90
24458;DHT22;12629;50.860;5.714;2022-10-16T04:45:52;13.20;99.90
24458;DHT22;12629;50.860;5.714;2022-10-16T04:48:22;13.10;99.90
24458;DHT22;12629;50.860;5.714;2022-10-16T04:50:49;13.10;99.90
24458;DHT22;12629;50.860;5.714;2022-10-16T04:53:16;13.10;99.90
24458;DHT22;12629;50.860;5.714;2022-10-16T04:55:43;13.10;99.90
24458;DHT22;12629;50.860;5.714;2022-10-16T04:58:11;13.10;99.90
24458;DHT22;12629;50.860;5.714;2022-10-16T05:00:38;13.10;99.90
24458;DHT22;12629;50.860;5.714;2022-10-16T05:03:05;13.20;99.90
24458;DHT22;12629;50.860;5.714;2022-10-16T05:05:36;13.20;99.90
24458;DHT22;12629;50.860;5.714;2022-10-16T05:08:03;13.20;99.90
24458;DHT22;12629;50.860;5.714;2022-10-16T05:10:31;13.10;99.90
24458;DHT22;12629;50.860;5.714;2022-10-16T05:12:58;13.10;99.90
24458;DHT22;12629;50.860;5.714;2022-10-16T05:15:25;13.20;99.90
24458;DHT22;12629;50.860;5.714;2022-10-16T05:17:53;13.20;99.90
24458;DHT22;12629;50.860;5.714;2022-10-16T05:20:20;13.20;99.90
24458;DHT22;12629;50.860;5.714;2022-10-16T05:22:49;13.20;99.90
24458;DHT22;12629;50.860;5.714;2022-10-16T05:25:16;13.20;99.90
24458;DHT22;12629;50.860;5.714;2022-10-16T05:27:47;13.30;99.90
24458;DHT22;12629;50.860;5.714;2022-10-16T05:30:15;13.30;99.90
24458;DHT22;12629;50.860;5.714;2022-10-16T05:32:46;13.30;99.90
24458;DHT22;12629;50.860;5.714;2022-10-16T05:35:14;13.20;99.90
24458;DHT22;12629;50.860;5.714;2022-10-16T05:37:41;13.10;99.90
24458;DHT22;12629;50.860;5.714;2022-10-16T05:40:10;13.10;99.90
24458;DHT22;12629;50.860;5.714;2022-10-16T05:42:38;13.10;99.90
24458;DHT22;12629;50.860;5.714;2022-10-16T05:45:07;13.10;99.90
24458;DHT22;12629;50.860;5.714;2022-10-16T05:47:35;13.10;99.90
24458;DHT22;12629;50.860;5.714;2022-10-16T05:50:02;13.20;99.90
24458;DHT22;12629;50.860;5.714;2022-10-16T05:52:31;13.20;99.90
24458;DHT22;12629;50.860;5.714;2022-10-16T05:54:58;13.20;99.90
24458;DHT22;12629;50.860;5.714;2022-10-16T05:57:26;13.30;99.90
24458;DHT22;12629;50.860;5.714;2022-10-16T05:59:53;13.20;99.90
24458;DHT22;12629;50.860;5.714;2022-10-16T06:02:21;13.20;99.90
24458;DHT22;12629;50.860;5.714;2022-10-16T06:04:48;13.20;99.90
24458;DHT22;12629;50.860;5.714;2022-10-16T06:07:15;13.10;99.90
24458;DHT22;12629;50.860;5.714;2022-10-16T06:09:42;13.10;99.90
24458;DHT22;12629;50.860;5.714;2022-10-16T06:12:10;13.00;99.90
24458;DHT22;12629;50.860;5.714;2022-10-16T06:14:38;13.00;99.90
24458;DHT22;12629;50.860;5.714;2022-10-16T06:17:05;13.00;99.90
24458;DHT22;12629;50.860;5.714;2022-10-16T06:19:33;13.00;99.90
24458;DHT22;12629;50.860;5.714;2022-10-16T06:22:00;13.00;99.90
24458;DHT22;12629;50.860;5.714;2022-10-16T06:24:28;12.90;99.90
24458;DHT22;12629;50.860;5.714;2022-10-16T06:26:55;13.00;99.90
24458;DHT22;12629;50.860;5.714;2022-10-16T06:29:22;13.00;99.90
24458;DHT22;12629;50.860;5.714;2022-10-16T06:31:51;13.00;99.90
24458;DHT22;12629;50.860;5.714;2022-10-16T06:34:18;13.00;99.90
24458;DHT22;12629;50.860;5.714;2022-10-16T06:36:45;13.00;99.90
24458;DHT22;12629;50.860;5.714;2022-10-16T06:39:12;13.00;99.90
24458;DHT22;12629;50.860;5.714;2022-10-16T06:41:40;13.00;99.90
24458;DHT22;12629;50.860;5.714;2022-10-16T06:44:07;13.00;99.90
24458;DHT22;12629;50.860;5.714;2022-10-16T06:46:34;12.90;99.90
24458;DHT22;12629;50.860;5.714;2022-10-16T06:49:03;12.90;99.90
24458;DHT22;12629;50.860;5.714;2022-10-16T06:51:30;12.90;99.90
24458;DHT22;12629;50.860;5.714;2022-10-16T06:54:00;13.00;99.90
24458;DHT22;12629;50.860;5.714;2022-10-16T06:56:28;12.90;99.90
24458;DHT22;12629;50.860;5.714;2022-10-16T06:58:56;13.00;99.90
24458;DHT22;12629;50.860;5.714;2022-10-16T07:01:24;13.20;99.90
24458;DHT22;12629;50.860;5.714;2022-10-16T07:03:52;13.30;99.90
24458;DHT22;12629;50.860;5.714;2022-10-16T07:06:23;13.50;99.90
24458;DHT22;12629;50.860;5.714;2022-10-16T07:08:51;13.50;99.90
24458;DHT22;12629;50.860;5.714;2022-10-16T07:11:19;13.30;99.90
24458;DHT22;12629;50.860;5.714;2022-10-16T07:13:48;13.60;99.90
24458;DHT22;12629;50.860;5.714;2022-10-16T07:16:17;14.20;99.90
24458;DHT22;12629;50.860;5.714;2022-10-16T07:18:45;14.70;99.90
24458;DHT22;12629;50.860;5.714;2022-10-16T07:21:16;15.00;99.90
24458;DHT22;12629;50.860;5.714;2022-10-16T07:23:50;15.50;99.90
24458;DHT22;12629;50.860;5.714;2022-10-16T07:26:17;15.80;99.90
24458;DHT22;12629;50.860;5.714;2022-10-16T07:28:44;15.80;99.90
24458;DHT22;12629;50.860;5.714;2022-10-16T07:31:14;15.90;99.90
24458;DHT22;12629;50.860;5.714;2022-10-16T07:33:43;16.00;99.90
24458;DHT22;12629;50.860;5.714;2022-10-16T07:36:11;16.20;99.90
24458;DHT22;12629;50.860;5.714;2022-10-16T07:38:39;16.20;99.90
24458;DHT22;12629;50.860;5.714;2022-10-16T07:41:11;16.40;99.90
24458;DHT22;12629;50.860;5.714;2022-10-16T07:43:39;16.80;99.90
24458;DHT22;12629;50.860;5.714;2022-10-16T07:46:07;17.10;99.90
24458;DHT22;12629;50.860;5.714;2022-10-16T07:48:34;17.20;99.90
24458;DHT22;12629;50.860;5.714;2022-10-16T07:51:03;17.50;99.90
24458;DHT22;12629;50.860;5.714;2022-10-16T07:53:30;17.80;99.90
24458;DHT22;12629;50.860;5.714;2022-10-16T07:55:58;18.00;99.90
24458;DHT22;12629;50.860;5.714;2022-10-16T07:58:28;18.20;99.90
24458;DHT22;12629;50.860;5.714;2022-10-16T08:00:55;18.40;99.90
24458;DHT22;12629;50.860;5.714;2022-10-16T08:03:23;18.40;99.90
24458;DHT22;12629;50.860;5.714;2022-10-16T08:05:51;18.70;99.90
24458;DHT22;12629;50.860;5.714;2022-10-16T08:08:19;18.90;99.90
24458;DHT22;12629;50.860;5.714;2022-10-16T08:10:46;19.20;99.90
24458;DHT22;12629;50.860;5.714;2022-10-16T08:13:13;19.70;99.90
24458;DHT22;12629;50.860;5.714;2022-10-16T08:15:43;19.80;99.90
24458;DHT22;12629;50.860;5.714;2022-10-16T08:18:11;19.40;99.90
24458;DHT22;12629;50.860;5.714;2022-10-16T08:20:39;19.50;99.90
24458;DHT22;12629;50.860;5.714;2022-10-16T08:23:07;19.70;99.90
24458;DHT22;12629;50.860;5.714;2022-10-16T08:25:35;19.80;99.90
24458;DHT22;12629;50.860;5.714;2022-10-16T08:28:03;20.40;99.90
24458;DHT22;12629;50.860;5.714;2022-10-16T08:30:31;20.80;99.90
24458;DHT22;12629;50.860;5.714;2022-10-16T08:33:01;20.20;99.90
24458;DHT22;12629;50.860;5.714;2022-10-16T08:35:28;20.60;99.90
24458;DHT22;12629;50.860;5.714;2022-10-16T08:37:55;20.50;99.90
24458;DHT22;12629;50.860;5.714;2022-10-16T08:40:25;20.90;99.90
24458;DHT22;12629;50.860;5.714;2022-10-16T08:43:21;20.90;99.90
24458;DHT22;12629;50.860;5.714;2022-10-16T08:46:15;20.90;99.90
24458;DHT22;12629;50.860;5.714;2022-10-16T08:48:50;21.40;99.90
24458;DHT22;12629;50.860;5.714;2022-10-16T08:51:21;21.70;99.90
24458;DHT22;12629;50.860;5.714;2022-10-16T08:53:52;21.70;99.90
24458;DHT22;12629;50.860;5.714;2022-10-16T08:56:20;22.00;99.90
24458;DHT22;12629;50.860;5.714;2022-10-16T08:58:48;21.90;99.90
24458;DHT22;12629;50.860;5.714;2022-10-16T09:01:17;21.20;99.90
24458;DHT22;12629;50.860;5.714;2022-10-16T09:06:48;21.20;99.90
24458;DHT22;12629;50.860;5.714;2022-10-16T09:09:38;21.30;99.90
24458;DHT22;12629;50.860;5.714;2022-10-16T09:12:11;21.20;99.90
24458;DHT22;12629;50.860;5.714;2022-10-16T09:14:52;20.90;99.90
24458;DHT22;12629;50.860;5.714;2022-10-16T09:17:30;21.20;99.90
24458;DHT22;12629;50.860;5.714;2022-10-16T09:20:18;21.50;99.90
24458;DHT22;12629;50.860;5.714;2022-10-16T09:22:46;21.80;99.90
24458;DHT22;12629;50.860;5.714;2022-10-16T09:25:15;21.90;99.90
24458;DHT22;12629;50.860;5.714;2022-10-16T09:27:45;21.30;99.90
24458;DHT22;12629;50.860;5.714;2022-10-16T09:30:15;21.30;99.90
24458;DHT22;12629;50.860;5.714;2022-10-16T09:32:44;21.50;99.90
24458;DHT22;12629;50.860;5.714;2022-10-16T09:35:18;21.90;99.90
24458;DHT22;12629;50.860;5.714;2022-10-16T09:37:49;22.10;99.90
24458;DHT22;12629;50.860;5.714;2022-10-16T09:40:25;22.40;99.90
24458;DHT22;12629;50.860;5.714;2022-10-16T09:42:57;22.30;99.90
24458;DHT22;12629;50.860;5.714;2022-10-16T09:45:28;21.50;99.90
24458;DHT22;12629;50.860;5.714;2022-10-16T09:47:55;21.60;99.90
24458;DHT22;12629;50.860;5.714;2022-10-16T09:50:26;21.30;99.90
24458;DHT22;12629;50.860;5.714;2022-10-16T09:53:09;19.60;99.90
24458;DHT22;12629;50.860;5.714;2022-10-16T09:55:48;18.70;99.90
24458;DHT22;12629;50.860;5.714;2022-10-16T09:58:16;18.40;99.90
24458;DHT22;12629;50.860;5.714;2022-10-16T10:00:49;18.10;99.90
24458;DHT22;12629;50.860;5.714;2022-10-16T10:03:36;18.00;99.90
24458;DHT22;12629;50.860;5.714;2022-10-16T10:06:15;18.10;99.90
24458;DHT22;12629;50.860;5.714;2022-10-16T10:08:58;18.40;99.90
24458;DHT22;12629;50.860;5.714;2022-10-16T10:11:39;19.80;99.90
24458;DHT22;12629;50.860;5.714;2022-10-16T10:14:18;21.50;99.90
24458;DHT22;12629;50.860;5.714;2022-10-16T10:16:47;22.20;99.90
24458;DHT22;12629;50.860;5.714;2022-10-16T10:19:16;22.40;99.90
24458;DHT22;12629;50.860;5.714;2022-10-16T10:21:45;23.10;99.90
24458;DHT22;12629;50.860;5.714;2022-10-16T10:24:13;22.90;99.90
24458;DHT22;12629;50.860;5.714;2022-10-16T10:26:48;22.80;99.90
24458;DHT22;12629;50.860;5.714;2022-10-16T10:29:23;22.40;99.90
24458;DHT22;12629;50.860;5.714;2022-10-16T10:31:59;22.80;99.90
24458;DHT22;12629;50.860;5.714;2022-10-16T10:34:59;22.90;99.90
24458;DHT22;12629;50.860;5.714;2022-10-16T10:37:51;23.10;99.90
24458;DHT22;12629;50.860;5.714;2022-10-16T10:40:30;23.40;99.90
24458;DHT22;12629;50.860;5.714;2022-10-16T10:43:06;23.80;99.90
24458;DHT22;12629;50.860;5.714;2022-10-16T10:45:40;23.20;99.90
24458;DHT22;12629;50.860;5.714;2022-10-16T10:51:06;22.80;99.90
24458;DHT22;12629;50.860;5.714;2022-10-16T10:53:43;23.30;99.90
24458;DHT22;12629;50.860;5.714;2022-10-16T10:56:19;23.20;99.90
24458;DHT22;12629;50.860;5.714;2022-10-16T10:59:21;23.40;99.90
24458;DHT22;12629;50.860;5.714;2022-10-16T11:01:56;22.90;99.90
24458;DHT22;12629;50.860;5.714;2022-10-16T11:04:49;21.90;99.90
24458;DHT22;12629;50.860;5.714;2022-10-16T11:07:23;22.20;99.90
24458;DHT22;12629;50.860;5.714;2022-10-16T11:09:57;22.30;99.90
24458;DHT22;12629;50.860;5.714;2022-10-16T11:12:27;22.50;99.90
24458;DHT22;12629;50.860;5.714;2022-10-16T11:15:00;23.00;99.90
24458;DHT22;12629;50.860;5.714;2022-10-16T11:17:31;23.40;99.90
24458;DHT22;12629;50.860;5.714;2022-10-16T11:20:11;23.20;99.90
24458;DHT22;12629;50.860;5.714;2022-10-16T11:22:41;23.70;99.90
24458;DHT22;12629;50.860;5.714;2022-10-16T11:25:16;24.00;99.90
24458;DHT22;12629;50.860;5.714;2022-10-16T11:27:49;23.50;99.90
24458;DHT22;12629;50.860;5.714;2022-10-16T11:30:22;23.40;99.90
24458;DHT22;12629;50.860;5.714;2022-10-16T11:32:59;23.80;99.90
24458;DHT22;12629;50.860;5.714;2022-10-16T11:35:37;24.60;99.90
24458;DHT22;12629;50.860;5.714;2022-10-16T11:38:12;24.40;99.90
24458;DHT22;12629;50.860;5.714;2022-10-16T11:40:44;24.30;99.90
24458;DHT22;12629;50.860;5.714;2022-10-16T11:43:19;24.60;99.90
24458;DHT22;12629;50.860;5.714;2022-10-16T11:45:51;25.40;99.90
24458;DHT22;12629;50.860;5.714;2022-10-16T11:48:25;25.50;99.90
24458;DHT22;12629;50.860;5.714;2022-10-16T11:50:57;24.80;99.90
24458;DHT22;12629;50.860;5.714;2022-10-16T11:53:39;24.40;99.90
24458;DHT22;12629;50.860;5.714;2022-10-16T11:56:15;24.30;99.90
24458;DHT22;12629;50.860;5.714;2022-10-16T11:58:53;23.40;99.90
24458;DHT22;12629;50.860;5.714;2022-10-16T12:01:27;23.00;99.90
24458;DHT22;12629;50.860;5.714;2022-10-16T12:04:04;22.50;99.90
24458;DHT22;12629;50.860;5.714;2022-10-16T12:06:36;22.80;99.90
24458;DHT22;12629;50.860;5.714;2022-10-16T12:09:04;22.40;99.90
24458;DHT22;12629;50.860;5.714;2022-10-16T12:11:36;21.20;99.90
24458;DHT22;12629;50.860;5.714;2022-10-16T12:14:18;20.80;99.90
24458;DHT22;12629;50.860;5.714;2022-10-16T12:16:54;20.30;99.90
24458;DHT22;12629;50.860;5.714;2022-10-16T12:19:23;20.10;99.90
24458;DHT22;12629;50.860;5.714;2022-10-16T12:21:52;20.20;99.90
24458;DHT22;12629;50.860;5.714;2022-10-16T12:24:27;20.60;99.90
24458;DHT22;12629;50.860;5.714;2022-10-16T12:26:58;20.80;99.90
24458;DHT22;12629;50.860;5.714;2022-10-16T12:29:34;21.10;99.90
24458;DHT22;12629;50.860;5.714;2022-10-16T12:32:04;20.90;99.90
24458;DHT22;12629;50.860;5.714;2022-10-16T12:34:38;20.60;99.90
24458;DHT22;12629;50.860;5.714;2022-10-16T12:37:12;20.90;99.90
24458;DHT22;12629;50.860;5.714;2022-10-16T12:39:41;20.90;99.90
24458;DHT22;12629;50.860;5.714;2022-10-16T12:42:33;20.70;99.90
24458;DHT22;12629;50.860;5.714;2022-10-16T12:45:12;20.80;99.90
24458;DHT22;12629;50.860;5.714;2022-10-16T12:47:49;20.70;99.90
24458;DHT22;12629;50.860;5.714;2022-10-16T12:50:33;20.40;99.90
24458;DHT22;12629;50.860;5.714;2022-10-16T12:53:02;20.10;99.90
24458;DHT22;12629;50.860;5.714;2022-10-16T12:55:39;19.90;99.90
24458;DHT22;12629;50.860;5.714;2022-10-16T13:01:22;19.80;99.90
24458;DHT22;12629;50.860;5.714;2022-10-16T13:04:04;19.80;99.90
24458;DHT22;12629;50.860;5.714;2022-10-16T13:06:42;20.00;99.90
24458;DHT22;12629;50.860;5.714;2022-10-16T13:09:23;20.20;99.90
24458;DHT22;12629;50.860;5.714;2022-10-16T13:12:03;20.10;99.90
24458;DHT22;12629;50.860;5.714;2022-10-16T13:15:02;19.90;99.90
24458;DHT22;12629;50.860;5.714;2022-10-16T13:17:38;19.80;99.90
24458;DHT22;12629;50.860;5.714;2022-10-16T13:20:15;19.90;99.90
24458;DHT22;12629;50.860;5.714;2022-10-16T13:22:51;20.10;99.90
24458;DHT22;12629;50.860;5.714;2022-10-16T13:25:26;20.00;99.90
24458;DHT22;12629;50.860;5.714;2022-10-16T13:27:59;20.00;99.90
24458;DHT22;12629;50.860;5.714;2022-10-16T13:30:30;20.20;99.90
24458;DHT22;12629;50.860;5.714;2022-10-16T13:32:59;20.40;99.90
24458;DHT22;12629;50.860;5.714;2022-10-16T13:35:28;20.30;99.90
24458;DHT22;12629;50.860;5.714;2022-10-16T13:38:12;20.30;99.90
24458;DHT22;12629;50.860;5.714;2022-10-16T13:40:54;20.60;99.90
24458;DHT22;12629;50.860;5.714;2022-10-16T13:43:25;20.60;99.90
24458;DHT22;12629;50.860;5.714;2022-10-16T13:46:00;20.60;99.90
24458;DHT22;12629;50.860;5.714;2022-10-16T13:48:29;20.40;99.90
24458;DHT22;12629;50.860;5.714;2022-10-16T13:51:01;20.00;99.90
24458;DHT22;12629;50.860;5.714;2022-10-16T13:53:29;20.00;99.90
24458;DHT22;12629;50.860;5.714;2022-10-16T13:55:57;20.00;99.90
24458;DHT22;12629;50.860;5.714;2022-10-16T13:58:26;19.90;99.90
24458;DHT22;12629;50.860;5.714;2022-10-16T14:00:59;19.70;99.90
24458;DHT22;12629;50.860;5.714;2022-10-16T14:03:27;19.60;99.90
24458;DHT22;12629;50.860;5.714;2022-10-16T14:05:58;19.60;99.90
24458;DHT22;12629;50.860;5.714;2022-10-16T14:08:27;19.60;99.90
24458;DHT22;12629;50.860;5.714;2022-10-16T14:10:56;19.60;99.90
24458;DHT22;12629;50.860;5.714;2022-10-16T14:13:30;19.60;99.90
24458;DHT22;12629;50.860;5.714;2022-10-16T14:16:02;19.60;99.90
24458;DHT22;12629;50.860;5.714;2022-10-16T14:18:32;19.70;99.90
24458;DHT22;12629;50.860;5.714;2022-10-16T14:21:04;19.60;99.90
24458;DHT22;12629;50.860;5.714;2022-10-16T14:23:34;19.40;99.90
24458;DHT22;12629;50.860;5.714;2022-10-16T14:26:13;19.30;99.90
24458;DHT22;12629;50.860;5.714;2022-10-16T14:28:41;19.20;99.90
24458;DHT22;12629;50.860;5.714;2022-10-16T14:31:31;19.10;99.90
24458;DHT22;12629;50.860;5.714;2022-10-16T14:33:59;19.00;99.90
24458;DHT22;12629;50.860;5.714;2022-10-16T14:36:28;18.90;99.90
24458;DHT22;12629;50.860;5.714;2022-10-16T14:39:01;18.90;99.90
24458;DHT22;12629;50.860;5.714;2022-10-16T14:41:30;18.80;99.90
24458;DHT22;12629;50.860;5.714;2022-10-16T14:44:01;19.00;99.90
24458;DHT22;12629;50.860;5.714;2022-10-16T14:46:34;19.00;99.90
24458;DHT22;12629;50.860;5.714;2022-10-16T14:49:18;19.10;99.90
24458;DHT22;12629;50.860;5.714;2022-10-16T14:51:46;19.00;99.90
24458;DHT22;12629;50.860;5.714;2022-10-16T14:54:15;19.00;99.90
24458;DHT22;12629;50.860;5.714;2022-10-16T14:56:46;19.00;99.90
24458;DHT22;12629;50.860;5.714;2022-10-16T14:59:17;19.00;99.90
24458;DHT22;12629;50.860;5.714;2022-10-16T15:01:47;19.10;99.90
24458;DHT22;12629;50.860;5.714;2022-10-16T15:04:15;19.00;99.90
24458;DHT22;12629;50.860;5.714;2022-10-16T15:06:42;19.00;99.90
24458;DHT22;12629;50.860;5.714;2022-10-16T15:09:09;18.90;99.90
24458;DHT22;12629;50.860;5.714;2022-10-16T15:11:37;18.90;99.90
24458;DHT22;12629;50.860;5.714;2022-10-16T15:14:04;18.90;99.90
24458;DHT22;12629;50.860;5.714;2022-10-16T15:16:32;18.80;99.90
24458;DHT22;12629;50.860;5.714;2022-10-16T15:19:01;18.80;99.90
24458;DHT22;12629;50.860;5.714;2022-10-16T15:21:31;18.80;99.90
24458;DHT22;12629;50.860;5.714;2022-10-16T15:24:00;18.80;99.90
24458;DHT22;12629;50.860;5.714;2022-10-16T15:26:28;18.80;99.90
24458;DHT22;12629;50.860;5.714;2022-10-16T15:28:56;18.80;99.90
24458;DHT22;12629;50.860;5.714;2022-10-16T15:31:24;18.80;99.90
24458;DHT22;12629;50.860;5.714;2022-10-16T15:33:51;18.80;99.90
24458;DHT22;12629;50.860;5.714;2022-10-16T15:36:29;18.70;99.90
24458;DHT22;12629;50.860;5.714;2022-10-16T15:38:57;18.70;99.90
24458;DHT22;12629;50.860;5.714;2022-10-16T15:41:24;18.60;99.90
24458;DHT22;12629;50.860;5.714;2022-10-16T15:43:51;18.60;99.90
24458;DHT22;12629;50.860;5.714;2022-10-16T15:46:20;18.50;99.90
24458;DHT22;12629;50.860;5.714;2022-10-16T15:48:48;18.40;99.90
24458;DHT22;12629;50.860;5.714;2022-10-16T15:51:16;18.40;99.90
24458;DHT22;12629;50.860;5.714;2022-10-16T15:53:45;18.30;99.90
24458;DHT22;12629;50.860;5.714;2022-10-16T15:56:13;18.20;99.90
24458;DHT22;12629;50.860;5.714;2022-10-16T15:58:41;18.20;99.90
24458;DHT22;12629;50.860;5.714;2022-10-16T16:01:08;18.10;99.90
24458;DHT22;12629;50.860;5.714;2022-10-16T16:03:37;18.10;99.90